sensor_id;sensor_type;location;lat;lon;timestamp;P1;durP1;ratioP1;P2;durP2;ratioP2
17915;SDS011;9083;49.156;8.982;2022-07-29T00:02:26;5.60;;;3.70;;
17915;SDS011;9083;49.156;8.982;2022-07-29T00:05:04;7.13;;;3.70;;
17915;SDS011;9083;49.156;8.982;2022-07-29T00:07:33;7.80;;;4.20;;
17915;SDS011;9083;49.156;8.982;2022-07-29T00:10:03;4.00;;;3.60;;
17915;SDS011;9083;49.156;8.982;2022-07-29T00:12:32;4.53;;;3.83;;
17915;SDS011;9083;49.156;8.982;2022-07-29T00:14:59;7.33;;;4.10;;
17915;SDS011;9083;49.156;8.982;2022-07-29T00:17:38;4.30;;;3.90;;
17915;SDS011;9083;49.156;8.982;2022-07-29T00:20:12;7.13;;;3.70;;
17915;SDS011;9083;49.156;8.982;2022-07-29T00:22:42;5.00;;;3.37;;
17915;SDS011;9083;49.156;8.982;2022-07-29T00:25:17;6.03;;;4.00;;
17915;SDS011;9083;49.156;8.982;2022-07-29T00:27:46;7.57;;;3.80;;
17915;SDS011;9083;49.156;8.982;2022-07-29T00:30:18;4.00;;;3.70;;
17915;SDS011;9083;49.156;8.982;2022-07-29T00:32:47;4.77;;;3.50;;
17915;SDS011;9083;49.156;8.982;2022-07-29T00:35:24;5.47;;;3.90;;
17915;SDS011;9083;49.156;8.982;2022-07-29T00:38:08;5.73;;;3.90;;
17915;SDS011;9083;49.156;8.982;2022-07-29T00:40:35;4.07;;;3.60;;
17915;SDS011;9083;49.156;8.982;2022-07-29T00:43:16;5.60;;;4.40;;
17915;SDS011;9083;49.156;8.982;2022-07-29T00:45:47;3.83;;;3.53;;
17915;SDS011;9083;49.156;8.982;2022-07-29T00:48:21;6.87;;;4.00;;
17915;SDS011;9083;49.156;8.982;2022-07-29T00:50:50;4.77;;;3.73;;
17915;SDS011;9083;49.156;8.982;2022-07-29T00:53:25;4.20;;;3.80;;
17915;SDS011;9083;49.156;8.982;2022-07-29T00:56:11;5.90;;;4.03;;
17915;SDS011;9083;49.156;8.982;2022-07-29T00:58:41;4.30;;;4.00;;
17915;SDS011;9083;49.156;8.982;2022-07-29T01:01:08;8.47;;;4.27;;
17915;SDS011;9083;49.156;8.982;2022-07-29T01:03:47;5.20;;;4.23;;
17915;SDS011;9083;49.156;8.982;2022-07-29T01:06:26;4.97;;;4.10;;
17915;SDS011;9083;49.156;8.982;2022-07-29T01:08:56;4.43;;;4.10;;
17915;SDS011;9083;49.156;8.982;2022-07-29T01:11:24;5.37;;;4.13;;
17915;SDS011;9083;49.156;8.982;2022-07-29T01:13:53;4.03;;;3.73;;
17915;SDS011;9083;49.156;8.982;2022-07-29T01:16:25;5.50;;;4.07;;
17915;SDS011;9083;49.156;8.982;2022-07-29T01:19:00;7.10;;;3.67;;
17915;SDS011;9083;49.156;8.982;2022-07-29T01:21:45;4.37;;;3.97;;
17915;SDS011;9083;49.156;8.982;2022-07-29T01:24:30;5.37;;;3.83;;
17915;SDS011;9083;49.156;8.982;2022-07-29T01:27:04;7.47;;;3.73;;
17915;SDS011;9083;49.156;8.982;2022-07-29T01:29:41;5.37;;;4.00;;
17915;SDS011;9083;49.156;8.982;2022-07-29T01:32:18;6.67;;;4.03;;
17915;SDS011;9083;49.156;8.982;2022-07-29T01:34:51;3.90;;;3.63;;
17915;SDS011;9083;49.156;8.982;2022-07-29T01:37:24;4.37;;;3.87;;
17915;SDS011;9083;49.156;8.982;2022-07-29T01:40:02;6.23;;;3.97;;
17915;SDS011;9083;49.156;8.982;2022-07-29T01:42:35;4.90;;;4.40;;
17915;SDS011;9083;49.156;8.982;2022-07-29T01:45:10;11.33;;;5.93;;
17915;SDS011;9083;49.156;8.982;2022-07-29T01:47:40;4.23;;;3.93;;
17915;SDS011;9083;49.156;8.982;2022-07-29T01:50:12;4.40;;;4.00;;
17915;SDS011;9083;49.156;8.982;2022-07-29T01:52:46;6.10;;;3.90;;
17915;SDS011;9083;49.156;8.982;2022-07-29T01:55:22;5.77;;;4.37;;
17915;SDS011;9083;49.156;8.982;2022-07-29T01:57:55;4.87;;;3.73;;
17915;SDS011;9083;49.156;8.982;2022-07-29T02:00:28;5.03;;;3.90;;
17915;SDS011;9083;49.156;8.982;2022-07-29T02:02:59;6.90;;;4.20;;
17915;SDS011;9083;49.156;8.982;2022-07-29T02:05:27;5.40;;;4.00;;
17915;SDS011;9083;49.156;8.982;2022-07-29T02:08:09;6.57;;;3.90;;
17915;SDS011;9083;49.156;8.982;2022-07-29T02:10:38;5.83;;;3.70;;
17915;SDS011;9083;49.156;8.982;2022-07-29T02:13:07;5.27;;;3.90;;
17915;SDS011;9083;49.156;8.982;2022-07-29T02:15:37;4.50;;;3.47;;
17915;SDS011;9083;49.156;8.982;2022-07-29T02:18:09;4.60;;;4.00;;
17915;SDS011;9083;49.156;8.982;2022-07-29T02:20:39;6.80;;;3.93;;
17915;SDS011;9083;49.156;8.982;2022-07-29T02:23:22;7.00;;;3.80;;
17915;SDS011;9083;49.156;8.982;2022-07-29T02:25:55;3.50;;;3.20;;
17915;SDS011;9083;49.156;8.982;2022-07-29T02:28:23;3.77;;;3.50;;
17915;SDS011;9083;49.156;8.982;2022-07-29T02:30:54;3.83;;;3.47;;
17915;SDS011;9083;49.156;8.982;2022-07-29T02:33:22;9.23;;;4.17;;
17915;SDS011;9083;49.156;8.982;2022-07-29T02:35:51;4.27;;;3.80;;
17915;SDS011;9083;49.156;8.982;2022-07-29T02:38:19;8.27;;;4.07;;
17915;SDS011;9083;49.156;8.982;2022-07-29T02:41:07;6.33;;;3.90;;
17915;SDS011;9083;49.156;8.982;2022-07-29T02:43:39;4.57;;;4.17;;
17915;SDS011;9083;49.156;8.982;2022-07-29T02:46:12;4.13;;;3.83;;
17915;SDS011;9083;49.156;8.982;2022-07-29T02:48:45;4.93;;;4.07;;
17915;SDS011;9083;49.156;8.982;2022-07-29T02:51:19;7.37;;;3.90;;
17915;SDS011;9083;49.156;8.982;2022-07-29T02:53:55;5.60;;;3.77;;
17915;SDS011;9083;49.156;8.982;2022-07-29T02:56:24;4.60;;;4.20;;
17915;SDS011;9083;49.156;8.982;2022-07-29T02:58:55;4.50;;;3.77;;
17915;SDS011;9083;49.156;8.982;2022-07-29T03:01:33;5.43;;;4.00;;
17915;SDS011;9083;49.156;8.982;2022-07-29T03:04:07;6.13;;;3.83;;
17915;SDS011;9083;49.156;8.982;2022-07-29T03:06:35;4.53;;;3.93;;
17915;SDS011;9083;49.156;8.982;2022-07-29T03:09:03;5.37;;;4.13;;
17915;SDS011;9083;49.156;8.982;2022-07-29T03:11:31;5.13;;;4.57;;
17915;SDS011;9083;49.156;8.982;2022-07-29T03:13:59;4.47;;;4.00;;
17915;SDS011;9083;49.156;8.982;2022-07-29T03:16:26;5.33;;;4.30;;
17915;SDS011;9083;49.156;8.982;2022-07-29T03:18:58;6.20;;;4.57;;
17915;SDS011;9083;49.156;8.982;2022-07-29T03:21:28;5.27;;;4.03;;
17915;SDS011;9083;49.156;8.982;2022-07-29T03:23:55;3.70;;;3.40;;
17915;SDS011;9083;49.156;8.982;2022-07-29T03:26:28;4.53;;;3.77;;
17915;SDS011;9083;49.156;8.982;2022-07-29T03:28:55;4.50;;;4.10;;
17915;SDS011;9083;49.156;8.982;2022-07-29T03:31:22;6.07;;;4.10;;
17915;SDS011;9083;49.156;8.982;2022-07-29T03:33:49;5.20;;;3.80;;
17915;SDS011;9083;49.156;8.982;2022-07-29T03:36:17;4.73;;;4.10;;
17915;SDS011;9083;49.156;8.982;2022-07-29T03:38:45;5.03;;;4.17;;
17915;SDS011;9083;49.156;8.982;2022-07-29T03:41:14;6.30;;;4.67;;
17915;SDS011;9083;49.156;8.982;2022-07-29T03:43:42;5.67;;;3.93;;
17915;SDS011;9083;49.156;8.982;2022-07-29T03:46:12;4.63;;;3.93;;
17915;SDS011;9083;49.156;8.982;2022-07-29T03:48:41;5.40;;;4.10;;
17915;SDS011;9083;49.156;8.982;2022-07-29T03:51:10;5.87;;;3.97;;
17915;SDS011;9083;49.156;8.982;2022-07-29T03:53:42;6.67;;;3.70;;
17915;SDS011;9083;49.156;8.982;2022-07-29T03:56:12;5.13;;;3.80;;
17915;SDS011;9083;49.156;8.982;2022-07-29T03:58:48;4.00;;;3.60;;
17915;SDS011;9083;49.156;8.982;2022-07-29T04:01:18;5.47;;;3.83;;
17915;SDS011;9083;49.156;8.982;2022-07-29T04:03:46;4.03;;;3.57;;
17915;SDS011;9083;49.156;8.982;2022-07-29T04:06:13;4.40;;;3.90;;
17915;SDS011;9083;49.156;8.982;2022-07-29T04:08:43;4.67;;;4.23;;
17915;SDS011;9083;49.156;8.982;2022-07-29T04:11:14;5.00;;;4.17;;
17915;SDS011;9083;49.156;8.982;2022-07-29T04:13:41;5.97;;;4.37;;
17915;SDS011;9083;49.156;8.982;2022-07-29T04:16:16;5.50;;;4.40;;
17915;SDS011;9083;49.156;8.982;2022-07-29T04:18:46;6.43;;;4.30;;
17915;SDS011;9083;49.156;8.982;2022-07-29T04:21:15;5.60;;;4.50;;
17915;SDS011;9083;49.156;8.982;2022-07-29T04:23:48;4.97;;;4.30;;
17915;SDS011;9083;49.156;8.982;2022-07-29T04:26:21;6.63;;;4.83;;
17915;SDS011;9083;49.156;8.982;2022-07-29T04:28:49;7.23;;;4.73;;
17915;SDS011;9083;49.156;8.982;2022-07-29T04:31:18;4.63;;;4.23;;
17915;SDS011;9083;49.156;8.982;2022-07-29T04:33:48;8.10;;;4.93;;
17915;SDS011;9083;49.156;8.982;2022-07-29T04:36:15;9.77;;;4.47;;
17915;SDS011;9083;49.156;8.982;2022-07-29T04:38:43;4.70;;;4.23;;
17915;SDS011;9083;49.156;8.982;2022-07-29T04:41:13;5.47;;;4.50;;
17915;SDS011;9083;49.156;8.982;2022-07-29T04:43:43;6.70;;;5.00;;
17915;SDS011;9083;49.156;8.982;2022-07-29T04:46:13;4.80;;;4.30;;
17915;SDS011;9083;49.156;8.982;2022-07-29T04:48:46;5.47;;;3.90;;
17915;SDS011;9083;49.156;8.982;2022-07-29T04:51:24;5.23;;;4.37;;
17915;SDS011;9083;49.156;8.982;2022-07-29T04:53:53;18.53;;;5.10;;
17915;SDS011;9083;49.156;8.982;2022-07-29T04:56:22;4.20;;;3.73;;
17915;SDS011;9083;49.156;8.982;2022-07-29T04:59:08;4.63;;;3.97;;
17915;SDS011;9083;49.156;8.982;2022-07-29T05:04:27;4.37;;;3.43;;
17915;SDS011;9083;49.156;8.982;2022-07-29T05:07:08;6.60;;;3.90;;
17915;SDS011;9083;49.156;8.982;2022-07-29T05:09:37;4.40;;;4.00;;
17915;SDS011;9083;49.156;8.982;2022-07-29T05:12:08;7.20;;;4.23;;
17915;SDS011;9083;49.156;8.982;2022-07-29T05:14:38;6.63;;;3.77;;
17915;SDS011;9083;49.156;8.982;2022-07-29T05:17:18;4.53;;;4.07;;
17915;SDS011;9083;49.156;8.982;2022-07-29T05:19:54;6.43;;;3.77;;
17915;SDS011;9083;49.156;8.982;2022-07-29T05:22:22;12.77;;;4.70;;
17915;SDS011;9083;49.156;8.982;2022-07-29T05:24:51;7.07;;;3.73;;
17915;SDS011;9083;49.156;8.982;2022-07-29T05:27:23;13.57;;;4.20;;
17915;SDS011;9083;49.156;8.982;2022-07-29T05:29:53;9.90;;;4.60;;
17915;SDS011;9083;49.156;8.982;2022-07-29T05:32:30;14.60;;;4.13;;
17915;SDS011;9083;49.156;8.982;2022-07-29T05:34:59;7.10;;;4.47;;
17915;SDS011;9083;49.156;8.982;2022-07-29T05:37:29;18.53;;;9.07;;
17915;SDS011;9083;49.156;8.982;2022-07-29T05:39:59;6.60;;;4.53;;
17915;SDS011;9083;49.156;8.982;2022-07-29T05:42:38;5.93;;;4.17;;
17915;SDS011;9083;49.156;8.982;2022-07-29T05:45:11;8.07;;;4.47;;
17915;SDS011;9083;49.156;8.982;2022-07-29T05:47:43;6.10;;;4.17;;
17915;SDS011;9083;49.156;8.982;2022-07-29T05:50:15;4.63;;;4.17;;
17915;SDS011;9083;49.156;8.982;2022-07-29T05:52:43;6.00;;;4.07;;
17915;SDS011;9083;49.156;8.982;2022-07-29T05:55:15;4.73;;;4.23;;
17915;SDS011;9083;49.156;8.982;2022-07-29T05:57:46;24.37;;;7.60;;
17915;SDS011;9083;49.156;8.982;2022-07-29T06:00:16;7.33;;;4.37;;
17915;SDS011;9083;49.156;8.982;2022-07-29T06:02:45;11.67;;;5.83;;
17915;SDS011;9083;49.156;8.982;2022-07-29T06:05:23;8.27;;;4.77;;
17915;SDS011;9083;49.156;8.982;2022-07-29T06:07:51;4.80;;;4.23;;
17915;SDS011;9083;49.156;8.982;2022-07-29T06:10:19;5.77;;;4.63;;
17915;SDS011;9083;49.156;8.982;2022-07-29T06:12:55;5.63;;;4.33;;
17915;SDS011;9083;49.156;8.982;2022-07-29T06:15:25;10.13;;;4.37;;
17915;SDS011;9083;49.156;8.982;2022-07-29T06:18:00;20.37;;;6.20;;
17915;SDS011;9083;49.156;8.982;2022-07-29T06:20:32;12.40;;;4.87;;
17915;SDS011;9083;49.156;8.982;2022-07-29T06:23:02;5.27;;;4.27;;
17915;SDS011;9083;49.156;8.982;2022-07-29T06:25:31;10.40;;;4.80;;
17915;SDS011;9083;49.156;8.982;2022-07-29T06:28:06;7.23;;;4.00;;
17915;SDS011;9083;49.156;8.982;2022-07-29T06:30:35;4.63;;;4.00;;
17915;SDS011;9083;49.156;8.982;2022-07-29T06:33:03;8.83;;;5.03;;
17915;SDS011;9083;49.156;8.982;2022-07-29T06:35:38;5.10;;;4.50;;
17915;SDS011;9083;49.156;8.982;2022-07-29T06:38:21;7.07;;;4.40;;
17915;SDS011;9083;49.156;8.982;2022-07-29T06:40:48;7.77;;;4.73;;
17915;SDS011;9083;49.156;8.982;2022-07-29T06:43:31;4.57;;;3.87;;
17915;SDS011;9083;49.156;8.982;2022-07-29T06:46:06;4.97;;;3.77;;
17915;SDS011;9083;49.156;8.982;2022-07-29T06:48:34;4.23;;;3.80;;
17915;SDS011;9083;49.156;8.982;2022-07-29T06:51:06;7.63;;;4.40;;
17915;SDS011;9083;49.156;8.982;2022-07-29T06:53:38;10.10;;;4.13;;
17915;SDS011;9083;49.156;8.982;2022-07-29T06:56:06;6.33;;;3.90;;
17915;SDS011;9083;49.156;8.982;2022-07-29T06:58:35;4.77;;;3.57;;
17915;SDS011;9083;49.156;8.982;2022-07-29T07:01:07;6.97;;;4.20;;
17915;SDS011;9083;49.156;8.982;2022-07-29T07:03:34;7.43;;;3.87;;
17915;SDS011;9083;49.156;8.982;2022-07-29T07:06:07;6.40;;;3.87;;
17915;SDS011;9083;49.156;8.982;2022-07-29T07:08:35;19.07;;;5.93;;
17915;SDS011;9083;49.156;8.982;2022-07-29T07:11:06;5.07;;;4.30;;
17915;SDS011;9083;49.156;8.982;2022-07-29T07:13:36;3.73;;;3.43;;
17915;SDS011;9083;49.156;8.982;2022-07-29T07:16:05;5.13;;;3.83;;
17915;SDS011;9083;49.156;8.982;2022-07-29T07:18:37;6.87;;;3.83;;
17915;SDS011;9083;49.156;8.982;2022-07-29T07:21:05;5.17;;;3.73;;
17915;SDS011;9083;49.156;8.982;2022-07-29T07:23:36;12.40;;;3.90;;
17915;SDS011;9083;49.156;8.982;2022-07-29T07:26:12;4.27;;;3.87;;
17915;SDS011;9083;49.156;8.982;2022-07-29T07:28:43;7.77;;;4.27;;
17915;SDS011;9083;49.156;8.982;2022-07-29T07:31:14;4.30;;;3.90;;
17915;SDS011;9083;49.156;8.982;2022-07-29T07:33:43;4.20;;;3.43;;
17915;SDS011;9083;49.156;8.982;2022-07-29T07:36:11;8.33;;;3.57;;
17915;SDS011;9083;49.156;8.982;2022-07-29T07:38:41;5.27;;;3.23;;
17915;SDS011;9083;49.156;8.982;2022-07-29T07:41:09;7.27;;;3.30;;
17915;SDS011;9083;49.156;8.982;2022-07-29T07:43:38;3.73;;;3.43;;
17915;SDS011;9083;49.156;8.982;2022-07-29T07:46:08;3.50;;;3.20;;
17915;SDS011;9083;49.156;8.982;2022-07-29T07:48:39;8.77;;;3.57;;
17915;SDS011;9083;49.156;8.982;2022-07-29T07:51:13;5.53;;;3.30;;
17915;SDS011;9083;49.156;8.982;2022-07-29T07:53:41;17.40;;;3.83;;
17915;SDS011;9083;49.156;8.982;2022-07-29T07:56:16;4.00;;;3.57;;
17915;SDS011;9083;49.156;8.982;2022-07-29T07:58:43;6.68;;;3.13;;
17915;SDS011;9083;49.156;8.982;2022-07-29T08:01:13;4.10;;;3.07;;
17915;SDS011;9083;49.156;8.982;2022-07-29T08:03:44;4.82;;;2.95;;
17915;SDS011;9083;49.156;8.982;2022-07-29T08:06:15;5.50;;;3.25;;
17915;SDS011;9083;49.156;8.982;2022-07-29T08:08:45;5.68;;;3.53;;
17915;SDS011;9083;49.156;8.982;2022-07-29T08:11:16;4.78;;;3.10;;
17915;SDS011;9083;49.156;8.982;2022-07-29T08:13:45;12.95;;;4.03;;
17915;SDS011;9083;49.156;8.982;2022-07-29T08:16:25;5.75;;;2.90;;
17915;SDS011;9083;49.156;8.982;2022-07-29T08:18:57;6.30;;;2.90;;
17915;SDS011;9083;49.156;8.982;2022-07-29T08:21:32;6.63;;;3.35;;
17915;SDS011;9083;49.156;8.982;2022-07-29T08:24:03;6.43;;;4.13;;
17915;SDS011;9083;49.156;8.982;2022-07-29T08:26:51;3.15;;;2.95;;
17915;SDS011;9083;49.156;8.982;2022-07-29T08:29:26;5.57;;;3.78;;
17915;SDS011;9083;49.156;8.982;2022-07-29T08:31:59;3.97;;;3.03;;
17915;SDS011;9083;49.156;8.982;2022-07-29T08:34:33;5.47;;;2.92;;
17915;SDS011;9083;49.156;8.982;2022-07-29T08:37:03;6.35;;;3.08;;
17915;SDS011;9083;49.156;8.982;2022-07-29T08:39:37;6.30;;;2.60;;
17915;SDS011;9083;49.156;8.982;2022-07-29T08:42:07;5.65;;;3.15;;
17915;SDS011;9083;49.156;8.982;2022-07-29T08:44:42;13.77;;;3.75;;
17915;SDS011;9083;49.156;8.982;2022-07-29T08:47:27;3.78;;;2.95;;
17915;SDS011;9083;49.156;8.982;2022-07-29T08:49:57;5.05;;;3.65;;
17915;SDS011;9083;49.156;8.982;2022-07-29T08:52:29;7.45;;;3.72;;
17915;SDS011;9083;49.156;8.982;2022-07-29T08:55:04;3.63;;;3.30;;
17915;SDS011;9083;49.156;8.982;2022-07-29T08:57:32;3.45;;;3.15;;
17915;SDS011;9083;49.156;8.982;2022-07-29T09:00:02;4.82;;;3.85;;
17915;SDS011;9083;49.156;8.982;2022-07-29T09:02:33;4.28;;;3.22;;
17915;SDS011;9083;49.156;8.982;2022-07-29T09:05:07;3.38;;;3.08;;
17915;SDS011;9083;49.156;8.982;2022-07-29T09:07:37;4.00;;;3.58;;
17915;SDS011;9083;49.156;8.982;2022-07-29T09:10:08;4.05;;;3.50;;
17915;SDS011;9083;49.156;8.982;2022-07-29T09:12:36;6.28;;;3.78;;
17915;SDS011;9083;49.156;8.982;2022-07-29T09:15:04;12.90;;;4.07;;
17915;SDS011;9083;49.156;8.982;2022-07-29T09:17:43;8.82;;;3.83;;
17915;SDS011;9083;49.156;8.982;2022-07-29T09:20:11;10.82;;;3.92;;
17915;SDS011;9083;49.156;8.982;2022-07-29T09:22:41;9.93;;;4.57;;
17915;SDS011;9083;49.156;8.982;2022-07-29T09:25:07;9.60;;;3.95;;
17915;SDS011;9083;49.156;8.982;2022-07-29T09:27:35;5.25;;;3.40;;
17915;SDS011;9083;49.156;8.982;2022-07-29T09:30:03;7.82;;;4.20;;
17915;SDS011;9083;49.156;8.982;2022-07-29T09:32:30;11.00;;;4.18;;
17915;SDS011;9083;49.156;8.982;2022-07-29T09:35:18;5.10;;;3.83;;
17915;SDS011;9083;49.156;8.982;2022-07-29T09:37:48;4.30;;;3.35;;
17915;SDS011;9083;49.156;8.982;2022-07-29T09:40:18;7.93;;;3.80;;
17915;SDS011;9083;49.156;8.982;2022-07-29T09:42:46;6.88;;;3.95;;
17915;SDS011;9083;49.156;8.982;2022-07-29T09:45:25;8.73;;;4.10;;
17915;SDS011;9083;49.156;8.982;2022-07-29T09:47:53;5.88;;;4.30;;
17915;SDS011;9083;49.156;8.982;2022-07-29T09:50:33;4.13;;;3.78;;
17915;SDS011;9083;49.156;8.982;2022-07-29T09:53:01;6.53;;;3.65;;
17915;SDS011;9083;49.156;8.982;2022-07-29T09:55:28;5.38;;;3.85;;
17915;SDS011;9083;49.156;8.982;2022-07-29T09:57:55;6.32;;;3.95;;
17915;SDS011;9083;49.156;8.982;2022-07-29T10:00:41;6.43;;;4.50;;
17915;SDS011;9083;49.156;8.982;2022-07-29T10:03:08;11.90;;;4.88;;
17915;SDS011;9083;49.156;8.982;2022-07-29T10:05:43;5.30;;;3.78;;
17915;SDS011;9083;49.156;8.982;2022-07-29T10:08:11;4.25;;;3.85;;
17915;SDS011;9083;49.156;8.982;2022-07-29T10:10:39;4.10;;;3.80;;
17915;SDS011;9083;49.156;8.982;2022-07-29T10:13:09;6.15;;;3.88;;
17915;SDS011;9083;49.156;8.982;2022-07-29T10:15:38;8.38;;;4.38;;
17915;SDS011;9083;49.156;8.982;2022-07-29T10:18:16;4.97;;;3.60;;
17915;SDS011;9083;49.156;8.982;2022-07-29T10:20:50;8.65;;;4.65;;
17915;SDS011;9083;49.156;8.982;2022-07-29T10:23:18;7.03;;;4.32;;
17915;SDS011;9083;49.156;8.982;2022-07-29T10:25:48;5.88;;;4.13;;
17915;SDS011;9083;49.156;8.982;2022-07-29T10:28:17;5.05;;;4.38;;
17915;SDS011;9083;49.156;8.982;2022-07-29T10:30:48;10.70;;;4.63;;
17915;SDS011;9083;49.156;8.982;2022-07-29T10:33:21;4.30;;;3.40;;
17915;SDS011;9083;49.156;8.982;2022-07-29T10:35:59;4.28;;;3.60;;
17915;SDS011;9083;49.156;8.982;2022-07-29T10:41:19;4.43;;;3.70;;
17915;SDS011;9083;49.156;8.982;2022-07-29T10:43:53;4.45;;;3.20;;
17915;SDS011;9083;49.156;8.982;2022-07-29T10:46:21;3.58;;;3.35;;
17915;SDS011;9083;49.156;8.982;2022-07-29T10:49:08;6.05;;;3.78;;
17915;SDS011;9083;49.156;8.982;2022-07-29T10:51:58;28.88;;;4.57;;
17915;SDS011;9083;49.156;8.982;2022-07-29T10:54:38;9.63;;;4.13;;
17915;SDS011;9083;49.156;8.982;2022-07-29T10:57:15;3.78;;;3.47;;
17915;SDS011;9083;49.156;8.982;2022-07-29T10:59:48;3.67;;;3.35;;
17915;SDS011;9083;49.156;8.982;2022-07-29T11:05:01;7.43;;;3.30;;
17915;SDS011;9083;49.156;8.982;2022-07-29T11:07:30;6.35;;;3.78;;
17915;SDS011;9083;49.156;8.982;2022-07-29T11:12:50;7.78;;;4.32;;
17915;SDS011;9083;49.156;8.982;2022-07-29T11:15:18;6.82;;;3.50;;
17915;SDS011;9083;49.156;8.982;2022-07-29T11:18:07;4.05;;;3.10;;
17915;SDS011;9083;49.156;8.982;2022-07-29T11:20:38;9.85;;;3.53;;
17915;SDS011;9083;49.156;8.982;2022-07-29T11:23:24;3.63;;;2.90;;
17915;SDS011;9083;49.156;8.982;2022-07-29T11:28:50;9.98;;;3.70;;
17915;SDS011;9083;49.156;8.982;2022-07-29T11:31:19;11.38;;;4.03;;
17915;SDS011;9083;49.156;8.982;2022-07-29T11:33:47;4.07;;;3.35;;
17915;SDS011;9083;49.156;8.982;2022-07-29T11:36:14;5.43;;;3.33;;
17915;SDS011;9083;49.156;8.982;2022-07-29T11:38:43;3.38;;;3.00;;
17915;SDS011;9083;49.156;8.982;2022-07-29T11:41:24;4.63;;;2.97;;
17915;SDS011;9083;49.156;8.982;2022-07-29T11:43:55;5.35;;;2.70;;
17915;SDS011;9083;49.156;8.982;2022-07-29T11:46:43;4.30;;;3.13;;
17915;SDS011;9083;49.156;8.982;2022-07-29T11:49:28;8.77;;;3.55;;
17915;SDS011;9083;49.156;8.982;2022-07-29T11:51:55;7.72;;;3.58;;
17915;SDS011;9083;49.156;8.982;2022-07-29T11:54:25;7.55;;;3.55;;
17915;SDS011;9083;49.156;8.982;2022-07-29T11:56:52;10.35;;;3.40;;
17915;SDS011;9083;49.156;8.982;2022-07-29T11:59:22;12.52;;;4.07;;
17915;SDS011;9083;49.156;8.982;2022-07-29T12:01:53;2.97;;;2.78;;
17915;SDS011;9083;49.156;8.982;2022-07-29T12:04:20;3.35;;;2.90;;
17915;SDS011;9083;49.156;8.982;2022-07-29T12:06:49;6.35;;;2.83;;
17915;SDS011;9083;49.156;8.982;2022-07-29T12:09:15;5.80;;;3.28;;
17915;SDS011;9083;49.156;8.982;2022-07-29T12:11:44;16.15;;;4.13;;
17915;SDS011;9083;49.156;8.982;2022-07-29T12:14:23;7.40;;;3.80;;
17915;SDS011;9083;49.156;8.982;2022-07-29T12:16:56;2.97;;;2.70;;
17915;SDS011;9083;49.156;8.982;2022-07-29T12:19:31;5.03;;;3.35;;
17915;SDS011;9083;49.156;8.982;2022-07-29T12:22:08;5.05;;;3.05;;
17915;SDS011;9083;49.156;8.982;2022-07-29T12:24:42;4.60;;;3.10;;
17915;SDS011;9083;49.156;8.982;2022-07-29T12:27:16;15.48;;;3.58;;
17915;SDS011;9083;49.156;8.982;2022-07-29T12:29:54;11.88;;;3.58;;
17915;SDS011;9083;49.156;8.982;2022-07-29T12:32:21;6.22;;;3.03;;
17915;SDS011;9083;49.156;8.982;2022-07-29T12:34:48;3.22;;;2.80;;
17915;SDS011;9083;49.156;8.982;2022-07-29T12:37:20;14.68;;;3.65;;
17915;SDS011;9083;49.156;8.982;2022-07-29T12:39:49;10.00;;;2.90;;
17915;SDS011;9083;49.156;8.982;2022-07-29T12:42:19;3.35;;;3.08;;
17915;SDS011;9083;49.156;8.982;2022-07-29T12:44:50;3.53;;;3.03;;
17915;SDS011;9083;49.156;8.982;2022-07-29T12:47:17;3.95;;;3.10;;
17915;SDS011;9083;49.156;8.982;2022-07-29T12:49:44;5.03;;;3.10;;
17915;SDS011;9083;49.156;8.982;2022-07-29T12:52:23;3.28;;;2.95;;
17915;SDS011;9083;49.156;8.982;2022-07-29T12:54:51;4.03;;;2.78;;
17915;SDS011;9083;49.156;8.982;2022-07-29T12:57:28;3.08;;;2.65;;
17915;SDS011;9083;49.156;8.982;2022-07-29T13:00:06;2.78;;;2.67;;
17915;SDS011;9083;49.156;8.982;2022-07-29T13:02:35;3.20;;;2.67;;
17915;SDS011;9083;49.156;8.982;2022-07-29T13:05:03;9.48;;;2.95;;
17915;SDS011;9083;49.156;8.982;2022-07-29T13:07:33;10.23;;;2.88;;
17915;SDS011;9083;49.156;8.982;2022-07-29T13:10:11;17.83;;;4.38;;
17915;SDS011;9083;49.156;8.982;2022-07-29T13:12:40;6.63;;;2.60;;
17915;SDS011;9083;49.156;8.982;2022-07-29T13:15:28;17.20;;;3.90;;
17915;SDS011;9083;49.156;8.982;2022-07-29T13:17:55;4.72;;;2.70;;
17915;SDS011;9083;49.156;8.982;2022-07-29T13:20:29;6.65;;;2.80;;
17915;SDS011;9083;49.156;8.982;2022-07-29T13:22:56;4.28;;;2.63;;
17915;SDS011;9083;49.156;8.982;2022-07-29T13:25:23;2.97;;;2.72;;
17915;SDS011;9083;49.156;8.982;2022-07-29T13:27:52;3.10;;;2.90;;
17915;SDS011;9083;49.156;8.982;2022-07-29T13:30:21;2.55;;;2.30;;
17915;SDS011;9083;49.156;8.982;2022-07-29T13:32:48;2.83;;;2.63;;
17915;SDS011;9083;49.156;8.982;2022-07-29T13:35:15;3.33;;;2.83;;
17915;SDS011;9083;49.156;8.982;2022-07-29T13:37:43;4.97;;;3.10;;
17915;SDS011;9083;49.156;8.982;2022-07-29T13:40:10;3.50;;;3.17;;
17915;SDS011;9083;49.156;8.982;2022-07-29T13:42:37;3.17;;;2.85;;
17915;SDS011;9083;49.156;8.982;2022-07-29T13:45:09;4.55;;;2.97;;
17915;SDS011;9083;49.156;8.982;2022-07-29T13:47:37;4.57;;;2.97;;
17915;SDS011;9083;49.156;8.982;2022-07-29T13:50:07;6.00;;;2.83;;
17915;SDS011;9083;49.156;8.982;2022-07-29T13:52:38;5.38;;;2.92;;
17915;SDS011;9083;49.156;8.982;2022-07-29T13:55:08;3.38;;;3.00;;
17915;SDS011;9083;49.156;8.982;2022-07-29T13:57:35;4.30;;;2.95;;
17915;SDS011;9083;49.156;8.982;2022-07-29T14:00:11;6.80;;;2.72;;
17915;SDS011;9083;49.156;8.982;2022-07-29T14:02:38;5.38;;;3.33;;
17915;SDS011;9083;49.156;8.982;2022-07-29T14:05:05;6.03;;;2.67;;
17915;SDS011;9083;49.156;8.982;2022-07-29T14:07:34;3.28;;;2.78;;
17915;SDS011;9083;49.156;8.982;2022-07-29T14:10:01;3.85;;;3.00;;
17915;SDS011;9083;49.156;8.982;2022-07-29T14:12:29;3.58;;;3.28;;
17915;SDS011;9083;49.156;8.982;2022-07-29T14:14:58;3.67;;;3.20;;
17915;SDS011;9083;49.156;8.982;2022-07-29T14:17:26;4.60;;;2.95;;
17915;SDS011;9083;49.156;8.982;2022-07-29T14:19:54;4.82;;;3.00;;
17915;SDS011;9083;49.156;8.982;2022-07-29T14:22:23;6.47;;;2.95;;
17915;SDS011;9083;49.156;8.982;2022-07-29T14:24:50;18.73;;;3.80;;
17915;SDS011;9083;49.156;8.982;2022-07-29T14:27:19;12.23;;;3.20;;
17915;SDS011;9083;49.156;8.982;2022-07-29T14:29:51;6.80;;;3.15;;
17915;SDS011;9083;49.156;8.982;2022-07-29T14:32:18;9.15;;;3.25;;
17915;SDS011;9083;49.156;8.982;2022-07-29T14:34:51;2.92;;;2.72;;
17915;SDS011;9083;49.156;8.982;2022-07-29T14:37:18;6.40;;;2.92;;
17915;SDS011;9083;49.156;8.982;2022-07-29T14:39:44;4.15;;;2.60;;
17915;SDS011;9083;49.156;8.982;2022-07-29T14:42:14;3.85;;;2.60;;
17915;SDS011;9083;49.156;8.982;2022-07-29T14:44:41;5.25;;;2.58;;
17915;SDS011;9083;49.156;8.982;2022-07-29T14:47:08;8.60;;;2.78;;
17915;SDS011;9083;49.156;8.982;2022-07-29T14:49:37;12.00;;;2.95;;
17915;SDS011;9083;49.156;8.982;2022-07-29T14:52:07;3.47;;;2.80;;
17915;SDS011;9083;49.156;8.982;2022-07-29T14:54:34;3.10;;;2.47;;
17915;SDS011;9083;49.156;8.982;2022-07-29T14:57:05;7.55;;;2.40;;
17915;SDS011;9083;49.156;8.982;2022-07-29T14:59:37;4.45;;;2.35;;
17915;SDS011;9083;49.156;8.982;2022-07-29T15:02:03;5.00;;;2.50;;
17915;SDS011;9083;49.156;8.982;2022-07-29T15:04:32;2.13;;;1.92;;
17915;SDS011;9083;49.156;8.982;2022-07-29T15:06:58;3.15;;;2.13;;
17915;SDS011;9083;49.156;8.982;2022-07-29T15:09:28;4.25;;;2.22;;
17915;SDS011;9083;49.156;8.982;2022-07-29T15:12:03;7.55;;;2.35;;
17915;SDS011;9083;49.156;8.982;2022-07-29T15:14:33;5.10;;;1.83;;
17915;SDS011;9083;49.156;8.982;2022-07-29T15:17:00;2.65;;;1.92;;
17915;SDS011;9083;49.156;8.982;2022-07-29T15:19:33;5.22;;;2.00;;
17915;SDS011;9083;49.156;8.982;2022-07-29T15:22:01;1.98;;;1.88;;
17915;SDS011;9083;49.156;8.982;2022-07-29T15:24:31;4.88;;;2.13;;
17915;SDS011;9083;49.156;8.982;2022-07-29T15:26:58;4.03;;;2.05;;
17915;SDS011;9083;49.156;8.982;2022-07-29T15:29:24;3.17;;;1.70;;
17915;SDS011;9083;49.156;8.982;2022-07-29T15:31:51;3.72;;;1.67;;
17915;SDS011;9083;49.156;8.982;2022-07-29T15:34:18;5.72;;;2.13;;
17915;SDS011;9083;49.156;8.982;2022-07-29T15:36:48;6.15;;;1.85;;
17915;SDS011;9083;49.156;8.982;2022-07-29T15:39:14;3.85;;;1.55;;
17915;SDS011;9083;49.156;8.982;2022-07-29T15:41:44;4.93;;;2.03;;